Wayzata, Minnesota
Current Conditions -  °F | °C
As of 3:53 PM on Sunday 21 Dec 2014 (Local Time) from KFCM Reporting Station
Haze Haze  
Wind Chill: 29°   Ceiling: 500
Heat Index: 36°   Visibility: 2.5mi
Dew Point: 35°   Wind: 9mph
Humidity: 97%   Direction: 170°S
Pressure: 29.73"   Gusts: NA
Location:  44.97°N, 93.51°W
Report Text: KFCM 212153Z 17008KT 2 1/2SM BR OVC005 02/02 A2973 RMK AO2 RAE47 SLP075 P0001 T00220017
Loading
Personal Weather Stations






























Interactive Weather Map New forecast layout! Learn more

10-Day Weather Forecast

Advertisements
Track Severe Weather on mobile